createdAt,value
2022-12-28T00:01:14.022Z,98328.63
2022-12-28T00:03:40.674Z,98235.78
2022-12-28T00:06:07.349Z,98111.94
2022-12-28T00:08:33.968Z,98236.03
2022-12-28T00:11:07.865Z,98089.88
2022-12-28T00:13:37.168Z,98107.50
2022-12-28T00:16:25.337Z,98319.25
2022-12-28T00:18:52.001Z,98241.38
2022-12-28T00:21:18.830Z,98090.72
2022-12-28T00:23:45.342Z,98138.31
2022-12-28T00:26:12.986Z,98212.97
2022-12-28T00:28:40.063Z,98242.19
2022-12-28T00:31:06.589Z,98074.59
2022-12-28T00:33:33.150Z,98061.97
2022-12-28T00:36:00.648Z,98139.69
2022-12-28T00:38:28.104Z,98150.13
2022-12-28T00:40:54.674Z,98178.25
2022-12-28T00:43:21.237Z,98208.16
2022-12-28T00:45:48.022Z,98203.63
2022-12-28T00:48:15.072Z,98226.44
2022-12-28T00:50:42.034Z,98110.50
2022-12-28T00:53:08.652Z,98211.59
2022-12-28T00:55:35.354Z,98062.56
2022-12-28T00:58:02.238Z,98114.31
2022-12-28T01:00:28.972Z,98073.63
2022-12-28T01:02:55.722Z,98140.59
2022-12-28T01:05:22.759Z,97988.63
2022-12-28T01:07:49.497Z,98152.81
2022-12-28T01:10:16.181Z,98206.16
2022-12-28T01:12:42.779Z,98167.59
2022-12-28T01:15:10.308Z,98072.28
2022-12-28T01:17:36.878Z,98116.94
2022-12-28T01:20:04.211Z,98185.50
2022-12-28T01:22:30.994Z,98112.22
2022-12-28T01:24:57.571Z,98129.44
2022-12-28T01:27:24.103Z,98144.81
2022-12-28T01:29:50.706Z,98209.50
2022-12-28T01:32:17.240Z,98172.91
2022-12-28T01:34:43.745Z,98136.44
2022-12-28T01:37:10.354Z,98194.50
2022-12-28T01:39:37.015Z,98260.09
2022-12-28T01:42:03.564Z,98231.22
2022-12-28T01:44:44.329Z,98093.88
2022-12-28T01:47:14.189Z,98136.34
2022-12-28T01:49:43.992Z,98200.03
2022-12-28T01:52:19.864Z,98259.63
2022-12-28T01:54:56.121Z,98010.03
2022-12-28T01:57:25.127Z,98075.88
2022-12-28T02:00:09.355Z,98233.22
2022-12-28T02:02:36.330Z,98148.44
2022-12-28T02:05:03.204Z,98004.19
2022-12-28T02:07:57.950Z,98157.75
2022-12-28T02:10:41.445Z,98112.22
2022-12-28T02:13:11.294Z,98096.88
2022-12-28T02:15:37.913Z,97990.06
2022-12-28T02:18:04.642Z,98147.72
2022-12-28T02:20:50.120Z,98008.66
2022-12-28T02:23:44.896Z,98189.69
2022-12-28T02:26:37.839Z,98214.53
2022-12-28T02:29:31.490Z,98015.34
2022-12-28T02:32:28.772Z,98205.19
2022-12-28T02:35:18.630Z,97962.63
2022-12-28T02:37:52.060Z,98088.22
2022-12-28T02:40:26.852Z,98191.56
2022-12-28T02:42:54.419Z,98156.84
2022-12-28T02:45:50.503Z,98198.34
2022-12-28T02:48:35.798Z,97945.41
2022-12-28T02:51:14.624Z,98173.72
2022-12-28T02:53:44.191Z,98177.94
2022-12-28T02:56:19.749Z,98051.91
2022-12-28T02:59:07.718Z,98113.31
2022-12-28T03:01:49.645Z,98171.19
2022-12-28T03:04:28.071Z,98039.31
2022-12-28T03:07:22.552Z,98161.81
2022-12-28T03:10:07.859Z,98110.50
2022-12-28T03:12:40.757Z,97804.84
2022-12-28T03:15:15.488Z,98140.56
2022-12-28T03:18:01.207Z,98027.66
2022-12-28T03:20:48.732Z,97712.06
2022-12-28T03:23:35.675Z,97974.84
2022-12-28T03:26:21.597Z,97884.66
2022-12-28T03:29:06.712Z,98063.31
2022-12-28T03:31:33.328Z,97918.56
2022-12-28T03:34:08.743Z,97829.25
2022-12-28T03:36:35.179Z,98116.91
2022-12-28T03:39:25.130Z,98127.81
2022-12-28T03:42:25.009Z,97977.00
2022-12-28T03:44:55.127Z,97889.75
2022-12-28T03:47:21.729Z,98027.84
2022-12-28T03:49:48.253Z,97995.28
2022-12-28T03:52:14.825Z,98030.50
2022-12-28T03:54:41.395Z,97882.88
2022-12-28T03:57:08.139Z,97961.75
2022-12-28T03:59:34.816Z,97996.38
2022-12-28T04:02:01.542Z,98052.63
2022-12-28T04:04:28.259Z,97927.84
2022-12-28T04:06:54.790Z,98021.19
2022-12-28T04:09:22.491Z,97854.47
2022-12-28T04:11:49.032Z,97974.00
2022-12-28T04:14:15.726Z,98100.63
2022-12-28T04:16:42.296Z,97857.09
2022-12-28T04:19:10.435Z,97890.53
2022-12-28T04:21:37.131Z,97980.13
2022-12-28T04:24:03.917Z,97962.53
2022-12-28T04:26:30.496Z,97938.47
2022-12-28T04:29:02.066Z,97964.69
2022-12-28T04:31:29.274Z,97867.59
2022-12-28T04:33:58.928Z,97849.34
2022-12-28T04:36:25.672Z,98009.13
2022-12-28T04:38:52.219Z,97940.25
2022-12-28T04:41:18.910Z,97985.84
2022-12-28T04:43:45.479Z,97903.84
2022-12-28T04:46:18.521Z,97279.53
2022-12-28T04:48:55.541Z,96389.22
2022-12-28T04:51:26.381Z,98079.38
2022-12-28T04:53:53.229Z,97631.78
2022-12-28T04:56:20.462Z,96891.59
2022-12-28T04:58:47.223Z,98066.63
2022-12-28T05:01:16.047Z,98056.41
2022-12-28T05:03:48.197Z,97178.97
2022-12-28T05:06:20.560Z,97452.94
2022-12-28T05:08:47.489Z,97648.13
2022-12-28T05:11:20.349Z,98052.09
2022-12-28T05:13:49.506Z,97290.44
2022-12-28T05:16:25.503Z,98063.19
2022-12-28T05:18:56.820Z,97650.72
2022-12-28T05:21:29.270Z,97053.88
2022-12-28T05:23:58.750Z,98059.75
2022-12-28T05:26:29.351Z,97669.81
2022-12-28T05:28:56.480Z,98061.50
2022-12-28T05:31:43.708Z,97865.03
2022-12-28T05:34:10.383Z,98057.19
2022-12-28T05:36:39.943Z,97542.16
2022-12-28T05:39:09.735Z,97539.22
2022-12-28T05:41:36.473Z,97268.44
2022-12-28T05:44:03.462Z,97732.72
2022-12-28T05:46:31.445Z,97534.47
2022-12-28T05:48:58.257Z,98058.09
2022-12-28T05:51:34.032Z,98051.19
2022-12-28T05:54:01.133Z,97990.44
2022-12-28T05:56:30.857Z,98034.25
2022-12-28T05:58:58.240Z,97982.97
2022-12-28T06:01:27.736Z,97761.38
2022-12-28T06:04:04.262Z,97852.50
2022-12-28T06:06:31.304Z,97009.03
2022-12-28T06:09:00.062Z,97990.16
2022-12-28T06:11:27.385Z,96290.00
2022-12-28T06:13:54.037Z,97633.84
2022-12-28T06:16:23.760Z,97838.94
2022-12-28T06:18:51.884Z,97975.59
2022-12-28T06:21:20.863Z,98046.22
2022-12-28T06:23:47.668Z,98041.13
2022-12-28T06:26:16.380Z,97177.84
2022-12-28T06:28:43.533Z,97298.66
2022-12-28T06:31:23.590Z,97589.84
2022-12-28T06:33:57.245Z,97957.63
2022-12-28T06:36:28.153Z,98036.00
2022-12-28T06:38:55.795Z,97445.19
2022-12-28T06:41:22.497Z,98035.19
2022-12-28T06:43:49.385Z,97524.94
2022-12-28T06:46:16.898Z,97957.09
2022-12-28T06:48:43.766Z,97829.38
2022-12-28T06:51:11.795Z,97929.53
2022-12-28T06:53:38.426Z,97734.47
2022-12-28T06:56:14.238Z,97798.69
2022-12-28T06:58:41.087Z,98041.97
2022-12-28T07:01:28.816Z,97754.22
2022-12-28T07:03:56.567Z,97937.03
2022-12-28T07:06:24.589Z,98028.44
2022-12-28T07:08:51.281Z,97853.06
2022-12-28T07:11:21.887Z,97816.59
2022-12-28T07:13:48.994Z,97965.34
2022-12-28T07:16:22.229Z,97507.69
2022-12-28T07:18:48.895Z,97118.78
2022-12-28T07:21:16.626Z,97831.22
2022-12-28T07:23:43.167Z,97484.91
2022-12-28T07:26:17.468Z,97928.72
2022-12-28T07:28:45.210Z,97536.63
2022-12-28T07:31:16.860Z,97839.69
2022-12-28T07:33:43.872Z,97302.06
2022-12-28T07:36:13.067Z,97439.97
2022-12-28T07:38:39.722Z,97731.41
2022-12-28T07:41:08.193Z,97803.66
2022-12-28T07:43:34.753Z,98012.31
2022-12-28T07:46:05.914Z,97847.75
2022-12-28T07:48:32.894Z,98021.69
2022-12-28T07:51:06.794Z,97743.72
2022-12-28T07:53:33.309Z,98007.28
2022-12-28T07:56:00.167Z,97162.13
2022-12-28T07:58:26.689Z,97904.38
2022-12-28T08:00:53.593Z,97587.91
2022-12-28T08:03:20.197Z,97644.94
2022-12-28T08:05:46.727Z,96919.28
2022-12-28T08:08:13.337Z,97777.09
2022-12-28T08:10:39.833Z,97916.56
2022-12-28T08:13:06.825Z,96957.97
2022-12-28T08:15:33.306Z,97771.53
2022-12-28T08:17:59.911Z,97049.22
2022-12-28T08:20:26.450Z,97754.91
2022-12-28T08:22:53.359Z,97641.88
2022-12-28T08:25:19.844Z,97926.97
2022-12-28T08:27:46.317Z,97902.19
2022-12-28T08:30:13.083Z,97781.59
2022-12-28T08:32:39.559Z,97674.34
2022-12-28T08:35:06.309Z,97726.50
2022-12-28T08:37:32.821Z,96885.00
2022-12-28T08:39:59.353Z,97816.22
2022-12-28T08:42:25.905Z,97781.66
2022-12-28T08:44:52.403Z,97734.50
2022-12-28T08:47:18.896Z,97616.06
2022-12-28T08:49:45.392Z,97721.50
2022-12-28T08:52:11.988Z,97529.41
2022-12-28T08:54:38.553Z,97557.56
2022-12-28T08:57:05.084Z,97408.50
2022-12-28T08:59:31.608Z,97863.84
2022-12-28T09:01:58.245Z,97902.47
2022-12-28T09:04:24.926Z,97034.22
2022-12-28T09:06:51.519Z,97756.88
2022-12-28T09:09:19.479Z,97929.47
2022-12-28T09:11:46.155Z,97766.44
2022-12-28T09:14:20.424Z,97110.47
2022-12-28T09:16:49.600Z,97766.31
2022-12-28T09:19:16.160Z,97694.19
2022-12-28T09:21:42.886Z,97853.72
2022-12-28T09:24:09.524Z,96937.25
2022-12-28T09:26:37.172Z,97861.75
2022-12-28T09:29:05.247Z,97937.97
2022-12-28T09:31:32.499Z,97528.78
2022-12-28T09:36:49.129Z,97740.72
2022-12-28T09:39:19.931Z,97843.25
2022-12-28T09:41:50.301Z,97618.56
2022-12-28T09:44:41.672Z,97762.50
2022-12-28T09:47:08.072Z,97948.22
2022-12-28T09:49:44.729Z,97462.41
2022-12-28T09:52:14.252Z,97938.97
2022-12-28T09:54:41.011Z,97798.81
2022-12-28T09:57:12.772Z,97781.34
2022-12-28T09:59:39.366Z,97913.00
2022-12-28T10:02:17.213Z,97944.00
2022-12-28T10:04:49.113Z,97747.56
2022-12-28T10:07:16.061Z,97685.03
2022-12-28T10:09:42.541Z,97635.56
2022-12-28T10:12:16.776Z,97830.16
2022-12-28T10:14:45.624Z,97846.63
2022-12-28T10:17:13.114Z,97532.22
2022-12-28T10:19:39.633Z,97342.63
2022-12-28T10:22:07.690Z,97674.88
2022-12-28T10:24:34.208Z,97899.97
2022-12-28T10:27:02.134Z,97836.41
2022-12-28T10:29:30.801Z,97898.38
2022-12-28T10:32:09.346Z,97712.25
2022-12-28T10:34:36.509Z,97582.47
2022-12-28T10:37:14.031Z,97615.94
2022-12-28T10:39:50.176Z,97890.78
2022-12-28T10:42:27.816Z,97882.19
2022-12-28T10:44:55.962Z,97841.78
2022-12-28T10:47:28.295Z,97614.59
2022-12-28T10:52:41.448Z,97841.44
2022-12-28T10:55:34.371Z,97858.34
2022-12-28T10:58:30.056Z,97857.50
2022-12-28T11:01:07.099Z,97850.69
2022-12-28T11:03:36.886Z,97418.22
2022-12-28T11:06:26.340Z,97890.72
2022-12-28T11:09:07.137Z,96897.88
2022-12-28T11:11:33.782Z,97836.34
2022-12-28T11:14:06.408Z,97824.41
2022-12-28T11:16:36.552Z,97783.72
2022-12-28T11:19:03.574Z,97686.19
2022-12-28T11:21:30.704Z,97664.22
2022-12-28T11:23:57.230Z,97262.06
2022-12-28T11:26:23.870Z,97499.50
2022-12-28T11:28:51.817Z,97812.56
2022-12-28T11:31:33.448Z,97814.34
2022-12-28T11:34:03.508Z,97739.53
2022-12-28T11:36:30.157Z,97733.50
2022-12-28T11:38:56.779Z,97713.56
2022-12-28T11:41:33.907Z,97809.31
2022-12-28T11:44:05.021Z,97560.59
2022-12-28T11:46:31.463Z,97790.56
2022-12-28T11:49:05.482Z,97793.13
2022-12-28T11:51:33.346Z,97670.84
2022-12-28T11:54:00.064Z,97780.44
2022-12-28T11:56:45.138Z,97781.25
2022-12-28T11:59:29.245Z,97562.91
2022-12-28T12:02:20.674Z,97764.19
2022-12-28T12:04:47.443Z,97678.22
2022-12-28T12:07:19.989Z,97494.31
2022-12-28T12:20:43.660Z,97728.47
2022-12-28T12:23:18.607Z,97614.28
2022-12-28T12:25:47.583Z,97724.84
2022-12-28T12:28:34.431Z,97721.78
2022-12-28T12:31:02.261Z,97608.47
2022-12-28T12:33:32.068Z,97567.06
2022-12-28T12:36:11.297Z,97716.69
2022-12-28T12:38:40.945Z,97708.16
2022-12-28T12:41:30.692Z,97703.03
2022-12-28T12:44:09.466Z,97708.19
2022-12-28T12:46:44.949Z,97700.50
2022-12-28T12:49:53.089Z,97702.25
2022-12-28T12:52:54.372Z,97529.19
2022-12-28T12:55:43.823Z,97592.13
2022-12-28T12:58:48.252Z,97675.00
2022-12-28T13:01:26.821Z,97601.78
2022-12-28T13:03:53.998Z,97662.84
2022-12-28T13:06:23.259Z,97537.50
2022-12-28T13:08:50.871Z,97669.78
2022-12-28T13:11:17.782Z,97542.66
2022-12-28T13:13:46.023Z,97557.47
2022-12-28T13:16:26.463Z,97654.06
2022-12-28T13:18:57.699Z,97607.06
2022-12-28T13:21:26.097Z,97569.81
2022-12-28T13:23:52.838Z,97595.97
2022-12-28T13:26:24.915Z,97657.66
2022-12-28T13:28:55.995Z,97539.34
2022-12-28T13:31:28.865Z,97527.38
2022-12-28T13:34:00.192Z,97515.25
2022-12-28T13:36:26.842Z,97545.63
2022-12-28T13:39:11.112Z,97501.38
2022-12-28T13:41:37.640Z,97456.44
2022-12-28T13:44:19.014Z,97645.75
2022-12-28T13:46:50.291Z,97511.81
2022-12-28T13:49:17.675Z,97567.31
2022-12-28T13:51:48.363Z,97618.84
2022-12-28T13:54:18.006Z,97627.66
2022-12-28T13:56:44.609Z,97379.25
2022-12-28T13:59:16.175Z,97512.50
2022-12-28T14:01:44.319Z,97542.66
2022-12-28T14:04:51.120Z,97545.66
2022-12-28T14:07:00.111Z,97542.94
2022-12-28T14:09:26.618Z,97567.16
2022-12-28T14:11:53.165Z,97574.81
2022-12-28T14:14:19.681Z,97525.91
2022-12-28T14:16:46.214Z,97500.38
2022-12-28T14:19:12.780Z,97557.16
2022-12-28T14:21:45.018Z,97552.81
2022-12-28T14:24:13.494Z,97581.31
2022-12-28T14:26:45.835Z,97544.06
2022-12-28T14:29:14.246Z,97546.78
2022-12-28T14:31:40.979Z,97493.50
2022-12-28T14:34:07.610Z,97585.00
2022-12-28T14:36:40.596Z,97582.38
2022-12-28T14:39:07.730Z,97599.91
2022-12-28T14:41:39.315Z,97545.72
2022-12-28T14:44:07.605Z,97471.28
2022-12-28T14:46:36.009Z,97571.06
2022-12-28T14:49:24.721Z,97597.53
2022-12-28T14:51:51.289Z,97480.00
2022-12-28T14:54:20.852Z,97466.06
2022-12-28T14:56:54.107Z,97458.88
2022-12-28T14:59:30.251Z,97515.69
2022-12-28T15:01:57.031Z,97529.66
2022-12-28T15:04:39.871Z,97606.09
2022-12-28T15:07:07.869Z,97479.28
2022-12-28T15:09:34.522Z,97517.53
2022-12-28T15:12:21.423Z,97540.25
2022-12-28T15:14:48.814Z,97478.53
2022-12-28T15:17:15.566Z,97510.69
2022-12-28T15:19:42.667Z,97506.25
2022-12-28T15:22:09.303Z,97376.81
2022-12-28T15:24:35.866Z,97479.41
2022-12-28T15:27:03.061Z,97519.34
2022-12-28T15:30:03.857Z,97385.69
2022-12-28T15:32:16.383Z,97213.50
2022-12-28T15:34:42.936Z,97528.16
2022-12-28T15:37:09.527Z,97476.97
2022-12-28T15:39:36.315Z,97625.53
2022-12-28T15:42:02.905Z,97491.72
2022-12-28T15:44:29.473Z,97461.41
2022-12-28T15:46:56.164Z,97459.56
2022-12-28T15:49:22.895Z,97556.38
2022-12-28T15:51:49.488Z,97533.91
2022-12-28T15:54:19.185Z,97454.78
2022-12-28T15:56:54.982Z,97455.38
2022-12-28T15:59:21.583Z,97532.00
2022-12-28T16:01:48.617Z,97558.44
2022-12-28T16:04:15.490Z,97519.78
2022-12-28T16:06:45.034Z,97515.47
2022-12-28T16:09:12.377Z,97506.78
2022-12-28T16:11:38.951Z,97334.94
2022-12-28T16:14:06.274Z,97451.22
2022-12-28T16:16:37.514Z,97460.97
2022-12-28T16:19:05.875Z,97505.41
2022-12-28T16:21:32.528Z,97543.81
2022-12-28T16:23:59.795Z,97455.22
2022-12-28T16:26:26.332Z,97448.00
2022-12-28T16:28:52.963Z,97451.72
2022-12-28T16:31:49.048Z,97559.38
2022-12-28T16:34:16.971Z,97483.94
2022-12-28T16:36:45.478Z,97472.59
2022-12-28T16:39:13.349Z,97480.94
2022-12-28T16:41:39.933Z,97522.91
2022-12-28T16:44:17.608Z,97426.63
2022-12-28T16:46:44.279Z,97288.03
2022-12-28T16:49:11.470Z,97468.53
2022-12-28T16:51:39.315Z,97521.50
2022-12-28T16:54:06.505Z,97461.53
2022-12-28T16:56:33.283Z,97485.72
2022-12-28T16:59:00.602Z,97552.63
2022-12-28T17:01:27.475Z,97443.56
2022-12-28T17:03:57.310Z,97485.72
2022-12-28T17:06:26.766Z,97482.53
2022-12-28T17:08:53.317Z,97524.91
2022-12-28T17:11:19.883Z,97483.56
2022-12-28T17:13:46.449Z,97387.03
2022-12-28T17:16:13.072Z,97394.13
2022-12-28T17:18:39.670Z,97412.41
2022-12-28T17:21:07.312Z,97433.94
2022-12-28T17:23:34.051Z,97436.09
2022-12-28T17:26:00.653Z,97382.59
2022-12-28T17:28:27.239Z,97298.59
2022-12-28T17:31:04.248Z,97548.41
2022-12-28T17:33:35.596Z,97508.78
2022-12-28T17:36:05.839Z,97463.72
2022-12-28T17:38:32.507Z,97479.91
2022-12-28T17:40:59.119Z,97493.22
2022-12-28T17:43:31.669Z,97461.28
2022-12-28T17:46:01.433Z,97415.28
2022-12-28T17:48:30.206Z,97495.16
2022-12-28T17:50:58.953Z,97430.41
2022-12-28T17:53:25.839Z,97433.19
2022-12-28T17:55:52.410Z,97479.41
2022-12-28T17:58:18.931Z,97487.97
2022-12-28T18:00:45.535Z,97441.13
2022-12-28T18:03:12.087Z,97406.72
2022-12-28T18:05:38.714Z,97488.28
2022-12-28T18:08:05.461Z,97464.84
2022-12-28T18:10:32.001Z,97422.16
2022-12-28T18:12:58.586Z,97444.06
2022-12-28T18:15:29.795Z,97438.06
2022-12-28T18:18:00.050Z,97394.63
2022-12-28T18:20:26.659Z,97425.59
2022-12-28T18:22:53.293Z,97409.09
2022-12-28T18:25:19.955Z,97426.41
2022-12-28T18:27:46.521Z,97443.00
2022-12-28T18:30:13.724Z,97475.31
2022-12-28T18:32:40.349Z,97487.56
2022-12-28T18:35:07.767Z,97433.78
2022-12-28T18:37:34.639Z,97422.09
2022-12-28T18:40:01.395Z,97460.84
2022-12-28T18:42:27.918Z,97458.34
2022-12-28T18:44:54.552Z,97380.22
2022-12-28T18:47:21.101Z,97364.63
2022-12-28T18:49:48.384Z,97413.22
2022-12-28T18:52:15.974Z,97379.41
2022-12-28T18:54:42.762Z,97420.88
2022-12-28T18:57:09.337Z,97323.66
2022-12-28T18:59:35.990Z,97386.94
2022-12-28T19:02:07.375Z,97442.69
2022-12-28T19:04:35.165Z,97286.44
2022-12-28T19:07:01.808Z,97399.47
2022-12-28T19:09:28.367Z,97384.34
2022-12-28T19:11:55.560Z,97475.06
2022-12-28T19:14:22.197Z,97409.28
2022-12-28T19:16:48.758Z,97289.31
2022-12-28T19:19:17.242Z,97249.72
2022-12-28T19:21:43.986Z,97431.47
2022-12-28T19:24:15.943Z,97370.84
2022-12-28T19:26:42.588Z,97420.53
2022-12-28T19:29:11.209Z,97384.22
2022-12-28T19:31:37.859Z,97380.06
2022-12-28T19:34:04.456Z,97107.84
2022-12-28T19:36:31.083Z,97224.81
2022-12-28T19:38:57.822Z,97383.03
2022-12-28T19:41:24.515Z,97437.94
2022-12-28T19:43:51.088Z,97239.22
2022-12-28T19:46:22.361Z,97401.53
2022-12-28T19:48:52.328Z,97293.47
2022-12-28T19:51:18.938Z,97274.84
2022-12-28T19:53:45.519Z,97352.38
2022-12-28T19:56:13.358Z,97298.44
2022-12-28T19:58:40.118Z,97339.44
2022-12-28T20:01:11.715Z,97374.25
2022-12-28T20:03:38.544Z,97347.44
2022-12-28T20:06:12.456Z,97291.19
2022-12-28T20:08:39.416Z,97334.47
2022-12-28T20:11:06.159Z,97378.06
2022-12-28T20:13:33.321Z,97204.69
2022-12-28T20:16:00.001Z,97383.44
2022-12-28T20:18:26.638Z,97328.56
2022-12-28T20:21:18.548Z,97241.59
2022-12-28T20:23:39.752Z,97322.59
2022-12-28T20:26:06.308Z,97176.28
2022-12-28T20:28:32.978Z,97235.25
2022-12-28T20:31:01.132Z,97335.94
2022-12-28T20:33:27.819Z,97307.38
2022-12-28T20:35:58.814Z,97210.81
2022-12-28T20:38:25.710Z,97168.53
2022-12-28T20:41:05.589Z,97247.31
2022-12-28T20:43:32.701Z,97267.34
2022-12-28T20:45:59.408Z,97196.38
2022-12-28T20:48:26.065Z,97284.88
2022-12-28T20:50:59.618Z,97322.25
2022-12-28T20:53:27.126Z,97088.38
2022-12-28T20:55:53.700Z,97298.75
2022-12-28T20:58:20.397Z,97143.28
2022-12-28T21:00:46.987Z,97124.84
2022-12-28T21:03:13.650Z,97153.50
2022-12-28T21:05:40.254Z,97214.03
2022-12-28T21:08:06.854Z,97303.47
2022-12-28T21:10:33.509Z,97290.56
2022-12-28T21:13:00.150Z,97135.63
2022-12-28T21:15:26.860Z,97207.56
2022-12-28T21:17:53.459Z,97187.63
2022-12-28T21:20:20.182Z,97356.78
2022-12-28T21:22:46.719Z,97237.16
2022-12-28T21:25:13.275Z,97341.13
2022-12-28T21:27:39.921Z,97246.84
2022-12-28T21:30:07.304Z,97241.09
2022-12-28T21:32:33.984Z,97142.84
2022-12-28T21:35:00.582Z,97135.94
2022-12-28T21:37:36.197Z,97303.19
2022-12-28T21:40:04.610Z,97015.75
2022-12-28T21:42:31.122Z,97191.41
2022-12-28T21:44:57.759Z,97262.56
2022-12-28T21:47:24.332Z,97255.69
2022-12-28T21:49:50.939Z,97189.91
2022-12-28T21:52:17.557Z,97230.56
2022-12-28T21:54:45.580Z,97229.47
2022-12-28T21:57:12.583Z,97288.69
2022-12-28T21:59:39.309Z,97134.41
2022-12-28T22:02:36.011Z,97109.28
2022-12-28T22:05:21.971Z,96867.22
2022-12-28T22:08:09.542Z,97094.06
2022-12-28T22:10:56.562Z,97163.38
2022-12-28T22:13:23.336Z,97016.28
2022-12-28T22:15:52.643Z,97221.16
2022-12-28T22:21:07.432Z,97222.75
2022-12-28T22:23:34.976Z,97253.53
2022-12-28T22:26:01.883Z,97292.31
2022-12-28T22:28:28.550Z,97177.53
2022-12-28T22:30:55.192Z,97198.84
2022-12-28T22:33:21.849Z,97261.44
2022-12-28T22:35:48.445Z,97173.06
2022-12-28T22:38:14.985Z,97224.19
2022-12-28T22:40:41.577Z,97225.09
2022-12-28T22:43:08.145Z,97081.53
2022-12-28T22:45:34.879Z,97117.56
2022-12-28T22:48:01.559Z,97082.16
2022-12-28T22:50:28.815Z,97171.56
2022-12-28T22:52:55.965Z,97208.94
2022-12-28T22:55:22.547Z,97278.09
2022-12-28T22:57:49.181Z,97033.22
2022-12-28T23:00:16.069Z,97204.72
2022-12-28T23:02:43.284Z,97240.25
2022-12-28T23:05:10.167Z,97060.75
2022-12-28T23:07:38.582Z,96959.78
2022-12-28T23:10:07.002Z,97247.44
2022-12-28T23:12:33.764Z,97110.47
2022-12-28T23:15:19.770Z,97186.03
2022-12-28T23:17:49.963Z,97233.56
2022-12-28T23:20:35.734Z,97033.00
2022-12-28T23:23:20.616Z,97015.00
2022-12-28T23:26:05.792Z,97201.06
2022-12-28T23:28:32.421Z,97244.41
2022-12-28T23:30:59.064Z,97015.94
2022-12-28T23:33:25.676Z,97156.03
2022-12-28T23:35:52.277Z,97178.56
2022-12-28T23:38:19.021Z,97085.03
2022-12-28T23:40:45.571Z,97056.59
2022-12-28T23:43:12.238Z,97009.25
2022-12-28T23:45:38.851Z,97000.41
2022-12-28T23:48:05.648Z,97146.72
2022-12-28T23:50:32.183Z,97069.75
2022-12-28T23:52:58.736Z,97228.19
2022-12-28T23:55:25.299Z,97058.47
2022-12-28T23:57:51.887Z,97053.38
